Time;durP1;ratioP1;P1;durP2;ratioP2;P2;SDS_P1;SDS_P2;PMS_P1;PMS_P2;Temp;Humidity;BMP_temperature;BMP_pressure;BME280_temperature;BME280_humidity;BME280_pressure;Samples;Min_cycle;Max_cycle;Signal;HPM_P1;HPM_P2
2022/04/14 00:01:48;;;;;;;23.48;17.75;;;14.30;99.90;;;;;;5094839;28;20250;-51
2022/04/14 00:04:13;;;;;;;23.83;17.77;;;14.30;99.90;;;;;;5094713;28;20174;-51
2022/04/14 00:06:39;;;;;;;23.83;17.73;;;14.20;99.90;;;;;;5094310;28;20270;-51
2022/04/14 00:09:05;;;;;;;24.60;18.20;;;14.20;99.90;;;;;;5094704;28;20252;-51
2022/04/14 00:11:30;;;;;;;25.00;17.15;;;14.20;99.90;;;;;;5094701;28;20208;-51
2022/04/14 00:13:56;;;;;;;25.55;17.63;;;14.10;99.90;;;;;;5094724;28;20584;-51
2022/04/14 00:16:22;;;;;;;25.58;18.17;;;14.10;99.90;;;;;;5094821;28;20614;-52
2022/04/14 00:18:47;;;;;;;24.67;19.63;;;14.10;99.90;;;;;;5094496;28;20258;-51
2022/04/14 00:21:13;;;;;;;28.08;18.88;;;14.10;99.90;;;;;;5094453;28;20588;-52
2022/04/14 00:23:39;;;;;;;26.15;18.45;;;14.10;99.90;;;;;;5094708;28;20177;-52
2022/04/14 00:26:05;;;;;;;27.95;18.35;;;14.10;99.90;;;;;;5094229;28;20204;-52
2022/04/14 00:28:30;;;;;;;25.55;18.85;;;14.10;99.90;;;;;;5094204;28;20236;-51
2022/04/14 00:30:58;;;;;;;26.00;19.02;;;14.00;99.90;;;;;;5094693;28;20219;-51
2022/04/14 00:33:24;;;;;;;25.35;19.45;;;14.00;99.90;;;;;;5076373;28;20265;-51
2022/04/14 00:35:49;;;;;;;30.52;19.90;;;14.00;99.90;;;;;;5094117;28;20241;-52
2022/04/14 00:38:15;;;;;;;27.95;20.33;;;14.00;99.90;;;;;;5075979;28;20219;-51
2022/04/14 00:40:40;;;;;;;25.92;19.35;;;14.00;99.90;;;;;;5094194;28;20165;-52
2022/04/14 00:43:06;;;;;;;34.60;21.10;;;14.00;99.90;;;;;;5094077;28;20174;-52
2022/04/14 00:45:31;;;;;;;31.08;21.13;;;14.00;99.90;;;;;;5094080;28;20212;-52
2022/04/14 00:47:57;;;;;;;29.48;21.98;;;13.90;99.90;;;;;;5094357;28;20176;-52
2022/04/14 00:50:23;;;;;;;33.92;23.65;;;13.90;99.90;;;;;;5093896;28;20173;-52
2022/04/14 00:52:48;;;;;;;32.30;24.02;;;13.90;99.90;;;;;;5093837;28;20181;-52
2022/04/14 00:55:14;;;;;;;31.65;23.38;;;13.90;99.90;;;;;;5093784;28;20177;-51
2022/04/14 00:57:40;;;;;;;33.22;22.67;;;13.90;99.90;;;;;;5093929;28;20191;-51
2022/04/14 01:00:06;;;;;;;33.58;22.98;;;13.90;99.90;;;;;;5093575;28;20661;-52
2022/04/14 01:02:33;;;;;;;28.23;23.55;;;13.90;99.90;;;;;;5093652;28;20173;-51
2022/04/14 01:04:59;;;;;;;33.88;22.15;;;13.90;99.90;;;;;;5093557;28;20272;-50
2022/04/14 01:07:25;;;;;;;33.20;23.92;;;13.90;99.90;;;;;;5093311;28;20197;-52
2022/04/14 01:09:52;;;;;;;33.53;24.98;;;13.90;99.90;;;;;;5093481;28;20170;-52
2022/04/14 01:12:18;;;;;;;34.28;24.30;;;13.90;99.90;;;;;;5093349;28;20689;-52
2022/04/14 01:14:44;;;;;;;34.80;24.02;;;14.00;99.90;;;;;;5093331;28;20173;-51
2022/04/14 01:17:09;;;;;;;32.10;21.92;;;14.00;99.90;;;;;;5093401;28;20263;-51
2022/04/14 01:19:37;;;;;;;32.40;23.10;;;14.00;99.90;;;;;;5093247;28;20165;-51
2022/04/14 01:22:08;;;;;;;33.05;23.90;;;14.00;99.90;;;;;;5093531;28;20238;-51
2022/04/14 01:24:34;;;;;;;30.15;20.63;;;14.00;99.90;;;;;;5075655;28;20215;-52
2022/04/14 01:27:00;;;;;;;28.88;21.00;;;14.00;99.90;;;;;;5093212;28;20170;-51
2022/04/14 01:29:28;;;;;;;30.52;21.48;;;13.90;99.90;;;;;;5093661;28;20173;-50
2022/04/14 01:31:54;;;;;;;30.55;22.42;;;13.90;99.90;;;;;;5093641;28;20234;-51
2022/04/14 01:34:20;;;;;;;30.73;21.38;;;13.80;99.90;;;;;;5093107;28;20212;-52
2022/04/14 01:36:45;;;;;;;28.13;20.55;;;13.80;99.90;;;;;;5092986;28;20210;-51
2022/04/14 01:39:13;;;;;;;28.30;21.08;;;13.80;99.90;;;;;;5092998;28;20169;-52
2022/04/14 01:41:39;;;;;;;30.50;21.00;;;13.80;99.90;;;;;;5093263;28;20546;-52
2022/04/14 01:44:05;;;;;;;25.42;19.60;;;13.80;99.90;;;;;;5092922;28;20203;-51
2022/04/14 01:46:31;;;;;;;33.00;21.15;;;13.80;99.90;;;;;;5092707;28;20632;-50
2022/04/14 01:48:59;;;;;;;27.33;19.63;;;13.80;99.90;;;;;;5093391;28;20248;-51
2022/04/14 01:51:25;;;;;;;27.67;21.25;;;13.80;99.90;;;;;;5093314;28;20177;-51
2022/04/14 01:53:51;;;;;;;28.90;21.17;;;13.90;99.90;;;;;;5092960;28;20165;-51
2022/04/14 01:56:18;;;;;;;28.95;21.40;;;13.80;99.90;;;;;;5092898;28;20532;-51
2022/04/14 01:58:44;;;;;;;27.50;20.15;;;13.80;99.90;;;;;;5092901;28;20161;-51
2022/04/14 02:01:09;;;;;;;25.67;20.33;;;13.80;99.90;;;;;;5092628;28;20180;-52
2022/04/14 02:03:36;;;;;;;28.45;21.60;;;13.80;99.90;;;;;;5092585;28;20169;-52
2022/04/14 02:06:01;;;;;;;30.27;21.63;;;13.80;99.90;;;;;;5092367;28;20196;-52
2022/04/14 02:08:27;;;;;;;29.58;20.67;;;13.80;99.90;;;;;;5092773;28;20640;-51
2022/04/14 02:10:52;;;;;;;30.23;22.13;;;13.70;99.90;;;;;;5092453;28;20172;-51
2022/04/14 02:13:18;;;;;;;33.55;21.98;;;13.70;99.90;;;;;;5092300;28;20213;-52
2022/04/14 02:15:43;;;;;;;29.92;22.27;;;13.70;99.90;;;;;;5092386;28;20177;-52
2022/04/14 02:18:09;;;;;;;34.15;23.10;;;13.80;99.90;;;;;;5092156;28;20238;-52
2022/04/14 02:20:34;;;;;;;34.95;23.00;;;13.70;99.90;;;;;;5073824;28;20180;-52
2022/04/14 02:23:00;;;;;;;33.38;23.20;;;13.60;99.90;;;;;;5092637;28;20176;-51
2022/04/14 02:25:26;;;;;;;29.67;21.55;;;13.50;99.90;;;;;;5092458;28;20204;-52
2022/04/14 02:27:51;;;;;;;32.53;23.60;;;13.60;99.90;;;;;;5092448;28;20193;-52
2022/04/14 02:30:17;;;;;;;40.33;24.65;;;13.50;99.90;;;;;;5092229;28;20247;-51
2022/04/14 02:32:43;;;;;;;39.47;26.17;;;13.50;99.90;;;;;;5092136;28;20165;-52
2022/04/14 02:35:10;;;;;;;42.85;27.15;;;13.50;99.90;;;;;;5092431;28;20214;-50
2022/04/14 02:37:36;;;;;;;38.75;28.35;;;13.50;99.90;;;;;;5091674;28;20637;-51
2022/04/14 02:40:01;;;;;;;41.63;27.58;;;13.60;99.90;;;;;;5092115;28;20170;-51
2022/04/14 02:42:27;;;;;;;37.67;26.88;;;13.60;99.90;;;;;;5092372;28;20193;-51
2022/04/14 02:44:53;;;;;;;39.60;28.40;;;13.70;99.90;;;;;;5091965;28;20648;-51
2022/04/14 02:47:18;;;;;;;42.28;28.35;;;13.70;99.90;;;;;;5092116;28;20695;-51
2022/04/14 02:49:44;;;;;;;43.30;29.63;;;13.70;99.90;;;;;;5092011;28;20165;-52
2022/04/14 02:52:09;;;;;;;43.97;30.88;;;13.70;99.90;;;;;;5073870;28;20189;-50
2022/04/14 02:54:37;;;;;;;41.83;28.27;;;13.70;99.90;;;;;;5091963;28;20166;-51
2022/04/14 02:57:06;;;;;;;98.68;56.35;;;13.80;99.90;;;;;;5092140;28;20264;-51
2022/04/14 02:59:32;;;;;;;56.05;37.15;;;13.70;99.90;;;;;;5073763;28;20176;-51
2022/04/14 03:01:58;;;;;;;46.60;31.20;;;13.70;99.90;;;;;;5092224;28;20240;-51
2022/04/14 03:04:23;;;;;;;43.28;30.58;;;13.70;99.90;;;;;;5092167;28;20162;-51
2022/04/14 03:06:49;;;;;;;42.10;31.02;;;13.70;99.90;;;;;;5091849;28;20178;-52
2022/04/14 03:09:14;;;;;;;45.13;29.60;;;13.80;99.90;;;;;;5092103;28;20649;-49
2022/04/14 03:11:40;;;;;;;46.78;31.63;;;13.60;99.90;;;;;;5091847;28;20532;-52
2022/04/14 03:14:06;;;;;;;42.83;30.15;;;13.60;99.90;;;;;;5091676;28;20224;-52
2022/04/14 03:16:31;;;;;;;41.58;28.35;;;13.60;99.90;;;;;;5091841;28;20173;-50
2022/04/14 03:18:57;;;;;;;41.30;27.67;;;13.50;99.90;;;;;;5092075;28;20171;-52
2022/04/14 03:21:22;;;;;;;44.97;28.60;;;13.40;99.90;;;;;;5091754;28;20170;-52
2022/04/14 03:23:48;;;;;;;45.55;30.17;;;13.40;99.90;;;;;;5091723;28;20173;-52
2022/04/14 03:26:13;;;;;;;47.97;32.88;;;13.40;99.90;;;;;;5091830;28;20286;-51
2022/04/14 03:28:39;;;;;;;50.25;33.70;;;13.30;99.90;;;;;;5091823;28;20166;-52
2022/04/14 03:31:04;;;;;;;54.30;33.67;;;13.30;99.90;;;;;;5093530;28;20165;-51
2022/04/14 03:33:30;;;;;;;57.13;35.67;;;13.40;99.90;;;;;;5077338;28;20162;-52
2022/04/14 03:35:56;;;;;;;56.47;34.47;;;13.40;99.90;;;;;;5095935;28;20179;-51
2022/04/14 03:38:22;;;;;;;52.17;34.25;;;13.30;99.90;;;;;;5095374;28;20223;-51
2022/04/14 03:40:47;;;;;;;63.95;38.00;;;13.40;99.90;;;;;;5095313;28;20200;-52
2022/04/14 03:43:12;;;;;;;58.35;38.35;;;13.40;99.90;;;;;;5095190;28;20170;-49
2022/04/14 03:45:38;;;;;;;61.47;38.28;;;13.40;99.90;;;;;;5095099;28;20205;-51
2022/04/14 03:48:04;;;;;;;65.65;38.10;;;13.40;99.90;;;;;;5095155;28;20170;-51
2022/04/14 03:50:30;;;;;;;63.75;37.80;;;13.20;99.90;;;;;;5095191;28;20177;-51
2022/04/14 03:52:55;;;;;;;65.95;39.40;;;13.20;99.90;;;;;;5095429;28;20533;-51
2022/04/14 03:55:21;;;;;;;70.28;39.72;;;13.30;99.90;;;;;;5095080;28;20219;-51
2022/04/14 03:57:46;;;;;;;66.95;37.75;;;13.30;99.90;;;;;;5094945;28;20165;-51
2022/04/14 04:00:12;;;;;;;64.50;37.10;;;13.30;99.90;;;;;;5094973;28;20585;-52
2022/04/14 04:02:39;;;;;;;69.05;37.55;;;13.20;99.90;;;;;;5095051;28;20656;-51
2022/04/14 04:05:05;;;;;;;60.58;37.55;;;13.20;99.90;;;;;;5094630;28;20599;-52
2022/04/14 04:07:31;;;;;;;67.68;39.20;;;13.20;99.90;;;;;;5094668;28;20165;-51
2022/04/14 04:09:57;;;;;;;61.70;38.03;;;13.20;99.90;;;;;;5094944;28;20176;-51
2022/04/14 04:12:22;;;;;;;64.00;37.05;;;13.20;99.90;;;;;;5094758;28;20220;-50
2022/04/14 04:14:48;;;;;;;68.35;37.70;;;13.20;99.90;;;;;;5094916;28;20650;-51
2022/04/14 04:17:15;;;;;;;65.88;39.10;;;13.20;99.90;;;;;;5094583;28;20203;-52
2022/04/14 04:19:42;;;;;;;72.43;39.50;;;13.10;99.90;;;;;;5094829;28;20177;-52
2022/04/14 04:22:08;;;;;;;68.25;41.20;;;13.20;99.90;;;;;;5094703;28;20165;-50
2022/04/14 04:24:33;;;;;;;68.20;38.65;;;13.20;99.90;;;;;;5094437;28;20161;-52
2022/04/14 04:26:59;;;;;;;63.17;37.35;;;13.20;99.90;;;;;;5094373;28;20178;-51
2022/04/14 04:29:24;;;;;;;64.80;37.70;;;13.10;99.90;;;;;;5094858;28;20533;-51
2022/04/14 04:31:50;;;;;;;65.97;38.20;;;13.20;99.90;;;;;;5076120;28;20184;-51
2022/04/14 04:34:17;;;;;;;66.90;38.75;;;13.20;99.90;;;;;;5076273;28;20165;-51
2022/04/14 04:36:42;;;;;;;67.43;39.47;;;13.20;99.90;;;;;;5094484;28;20169;-50
2022/04/14 04:39:08;;;;;;;68.57;39.15;;;13.20;99.90;;;;;;5094243;28;20177;-51
2022/04/14 04:41:33;;;;;;;65.00;37.40;;;13.20;99.90;;;;;;5093860;28;20521;-51
2022/04/14 04:43:59;;;;;;;62.00;38.42;;;13.20;99.90;;;;;;5093699;28;20218;-51
2022/04/14 04:46:24;;;;;;;68.22;40.70;;;13.20;99.90;;;;;;5094549;28;20225;-51
2022/04/14 04:48:50;;;;;;;59.53;38.15;;;13.20;99.90;;;;;;5094029;28;20161;-52
2022/04/14 04:51:16;;;;;;;66.40;38.00;;;13.20;99.90;;;;;;5093963;28;20157;-52
2022/04/14 04:53:42;;;;;;;62.67;36.65;;;13.20;99.90;;;;;;5093843;28;20161;-52
2022/04/14 04:56:07;;;;;;;68.85;40.72;;;13.20;99.90;;;;;;5094029;28;20688;-52
2022/04/14 04:58:33;;;;;;;55.65;34.58;;;13.10;99.90;;;;;;5093738;28;20205;-52
2022/04/14 05:00:58;;;;;;;57.65;35.53;;;13.10;99.90;;;;;;5094073;28;20532;-52
2022/04/14 05:03:24;;;;;;;59.33;34.38;;;13.10;99.90;;;;;;5093934;28;20221;-51
2022/04/14 05:05:49;;;;;;;60.25;37.00;;;13.10;99.90;;;;;;5093610;28;20201;-51
2022/04/14 05:08:15;;;;;;;56.10;33.20;;;13.10;99.90;;;;;;5093813;28;20657;-51
2022/04/14 05:10:41;;;;;;;55.63;33.28;;;13.10;99.90;;;;;;5093200;28;20251;-51
2022/04/14 05:13:07;;;;;;;51.05;33.17;;;13.10;99.90;;;;;;5093054;28;20221;-51
2022/04/14 05:15:33;;;;;;;53.53;31.80;;;13.10;99.90;;;;;;5093489;28;20192;-51
2022/04/14 05:17:58;;;;;;;51.00;31.52;;;13.10;99.90;;;;;;5075720;28;20227;-49
2022/04/14 05:20:24;;;;;;;52.97;31.27;;;13.10;99.90;;;;;;5093567;28;20204;-51
2022/04/14 05:22:49;;;;;;;50.00;31.15;;;13.20;99.90;;;;;;5093355;28;20244;-51
2022/04/14 05:25:15;;;;;;;45.85;29.88;;;13.20;99.90;;;;;;5093207;28;20208;-52
2022/04/14 05:27:42;;;;;;;46.67;28.55;;;13.20;99.90;;;;;;5093287;28;20177;-51
2022/04/14 05:30:08;;;;;;;48.42;30.33;;;13.20;99.90;;;;;;5093231;28;20185;-52
2022/04/14 05:32:34;;;;;;;46.85;30.23;;;13.10;99.90;;;;;;5093070;28;20168;-51
2022/04/14 05:34:59;;;;;;;49.72;30.10;;;13.10;99.90;;;;;;5075117;28;20165;-51
2022/04/14 05:37:25;;;;;;;50.70;31.15;;;13.10;99.90;;;;;;5074762;28;20218;-51
2022/04/14 05:39:50;;;;;;;47.72;29.25;;;13.10;99.90;;;;;;5092595;28;20634;-52
2022/04/14 05:42:16;;;;;;;47.13;28.25;;;13.10;99.90;;;;;;5092901;28;20173;-49
2022/04/14 05:44:41;;;;;;;48.38;29.75;;;13.10;99.90;;;;;;5092687;28;20310;-51
2022/04/14 05:47:07;;;;;;;47.60;29.05;;;13.10;99.90;;;;;;5074449;28;20702;-51
2022/04/14 05:49:33;;;;;;;47.38;28.67;;;13.10;99.90;;;;;;5093051;28;20165;-52
2022/04/14 05:51:59;;;;;;;48.13;28.27;;;13.10;99.90;;;;;;5093102;28;20169;-52
2022/04/14 05:54:24;;;;;;;44.45;27.98;;;13.20;99.90;;;;;;5093140;28;20165;-51
2022/04/14 05:56:50;;;;;;;46.72;27.83;;;13.20;99.90;;;;;;5092663;28;20219;-51
2022/04/14 05:59:18;;;;;;;44.17;27.13;;;13.20;99.90;;;;;;5092633;28;20173;-52
2022/04/14 06:01:45;;;;;;;47.92;27.67;;;13.20;99.90;;;;;;5092585;28;20185;-52
2022/04/14 06:04:11;;;;;;;42.17;25.98;;;13.10;99.90;;;;;;5092498;28;20169;-50
2022/04/14 06:06:37;;;;;;;43.42;26.30;;;13.20;99.90;;;;;;5092516;28;20219;-50
2022/04/14 06:09:02;;;;;;;40.75;26.20;;;13.20;99.90;;;;;;5092457;28;20229;-51
2022/04/14 06:11:28;;;;;;;43.40;26.67;;;13.30;99.90;;;;;;5092742;28;20672;-51
2022/04/14 06:13:54;;;;;;;44.10;25.25;;;13.30;99.90;;;;;;5092564;28;20224;-50
2022/04/14 06:16:20;;;;;;;43.90;26.58;;;13.30;99.90;;;;;;5092380;28;20630;-51
2022/04/14 06:18:46;;;;;;;41.20;25.15;;;13.30;99.90;;;;;;5092308;28;20180;-52
2022/04/14 06:21:11;;;;;;;50.80;26.10;;;13.30;99.90;;;;;;5092235;28;20689;-51
2022/04/14 06:23:37;;;;;;;45.28;27.58;;;13.20;99.90;;;;;;5092177;28;20157;-51
2022/04/14 06:26:03;;;;;;;46.33;25.52;;;13.20;99.90;;;;;;5092056;28;20209;-51
2022/04/14 06:28:31;;;;;;;44.05;24.65;;;13.30;99.90;;;;;;5092154;28;20161;-51
2022/04/14 06:30:56;;;;;;;43.08;24.42;;;13.40;99.90;;;;;;5092600;28;20254;-51
2022/04/14 06:33:23;;;;;;;40.22;25.23;;;13.50;99.90;;;;;;5092137;28;20161;-51
2022/04/14 06:35:49;;;;;;;41.03;24.35;;;13.50;99.90;;;;;;5092151;28;20227;-52
2022/04/14 06:38:15;;;;;;;42.45;23.40;;;13.50;99.90;;;;;;5092076;28;20510;-52
2022/04/14 06:40:41;;;;;;;33.58;22.40;;;13.50;99.90;;;;;;5092013;28;20630;-51
2022/04/14 06:43:06;;;;;;;34.95;19.35;;;13.50;99.90;;;;;;5092282;28;20227;-51
2022/04/14 06:45:32;;;;;;;31.33;20.25;;;13.70;99.90;;;;;;5092016;28;20212;-50
2022/04/14 06:47:58;;;;;;;32.22;19.23;;;13.80;99.90;;;;;;5074176;28;20169;-51
2022/04/14 06:50:23;;;;;;;31.20;19.33;;;13.80;99.90;;;;;;5092272;28;20240;-51
2022/04/14 06:52:51;;;;;;;29.33;19.65;;;13.80;99.90;;;;;;5092260;28;20264;-52
2022/04/14 06:55:16;;;;;;;32.20;20.40;;;13.90;99.90;;;;;;5092151;28;20204;-51
2022/04/14 06:57:42;;;;;;;30.05;18.05;;;13.90;99.90;;;;;;5092223;28;20530;-51
2022/04/14 07:00:08;;;;;;;29.77;17.52;;;14.00;99.90;;;;;;5091932;28;20169;-51
2022/04/14 07:02:35;;;;;;;28.23;17.38;;;14.10;99.90;;;;;;5084617;28;20254;-50
2022/04/14 07:05:00;;;;;;;29.17;17.17;;;14.20;99.90;;;;;;5083999;28;20546;-49
2022/04/14 07:07:26;;;;;;;32.58;17.60;;;14.20;99.90;;;;;;5094922;28;20191;-47
2022/04/14 07:09:52;;;;;;;28.67;18.27;;;14.20;99.90;;;;;;5094621;28;20248;-48
2022/04/14 07:12:18;;;;;;;24.98;18.10;;;14.20;99.90;;;;;;5094384;28;20213;-54
2022/04/14 07:14:43;;;;;;;34.70;20.40;;;14.20;99.90;;;;;;5095772;28;20573;-54
2022/04/14 07:17:10;;;;;;;26.60;20.02;;;14.20;99.90;;;;;;5095812;28;20178;-54
2022/04/14 07:19:36;;;;;;;30.60;21.35;;;14.10;99.90;;;;;;5095940;28;20170;-54
2022/04/14 07:22:02;;;;;;;29.67;18.75;;;14.20;99.90;;;;;;5095619;28;20180;-54
2022/04/14 07:24:27;;;;;;;32.40;19.13;;;14.10;99.90;;;;;;5095849;28;20176;-54
2022/04/14 07:26:53;;;;;;;28.17;17.15;;;14.00;99.90;;;;;;5095416;28;20212;-54
2022/04/14 07:29:19;;;;;;;32.72;19.55;;;14.10;99.90;;;;;;5095601;28;20248;-54
2022/04/14 07:31:45;;;;;;;29.17;18.42;;;14.20;99.90;;;;;;5095383;28;20516;-54
2022/04/14 07:34:12;;;;;;;38.80;18.92;;;14.30;99.90;;;;;;5095528;28;20234;-54
2022/04/14 07:36:37;;;;;;;31.23;18.85;;;14.40;99.90;;;;;;5095365;28;20213;-54
2022/04/14 07:39:04;;;;;;;25.23;16.02;;;14.40;99.90;;;;;;5095355;28;20169;-54
2022/04/14 07:41:30;;;;;;;27.65;17.40;;;14.50;99.90;;;;;;5095291;28;20189;-54
2022/04/14 07:43:56;;;;;;;24.08;15.45;;;14.60;99.90;;;;;;5095553;28;20188;-54
2022/04/14 07:46:22;;;;;;;19.92;13.75;;;14.70;99.90;;;;;;5095301;28;20246;-54
2022/04/14 07:48:47;;;;;;;24.83;14.60;;;14.80;99.90;;;;;;5095023;28;20507;-54
2022/04/14 07:51:13;;;;;;;20.70;13.48;;;14.90;99.90;;;;;;5095015;28;20181;-54
2022/04/14 07:53:38;;;;;;;17.73;11.02;;;14.90;99.90;;;;;;5094892;28;20226;-54
2022/04/14 07:56:05;;;;;;;19.35;12.25;;;14.90;99.90;;;;;;5094907;28;20181;-54
2022/04/14 07:58:31;;;;;;;13.88;9.75;;;14.80;99.90;;;;;;5094874;28;20651;-54
2022/04/14 08:00:56;;;;;;;21.92;12.27;;;14.90;99.90;;;;;;5095201;28;20169;-54
2022/04/14 08:03:22;;;;;;;18.65;14.07;;;15.10;99.90;;;;;;5094751;28;20161;-54
2022/04/14 08:05:48;;;;;;;16.88;12.23;;;15.20;99.90;;;;;;5094613;28;20209;-54
2022/04/14 08:08:17;;;;;;;14.70;10.60;;;15.20;99.90;;;;;;5094698;28;20695;-54
2022/04/14 08:10:45;;;;;;;16.38;11.10;;;15.30;99.90;;;;;;5094955;28;20188;-54
2022/04/14 08:13:11;;;;;;;18.00;12.07;;;15.40;99.90;;;;;;5094617;28;20267;-54
2022/04/14 08:15:39;;;;;;;15.57;12.82;;;15.70;99.90;;;;;;5094606;28;20173;-54
2022/04/14 08:18:06;;;;;;;13.55;9.38;;;15.80;99.90;;;;;;5093310;28;20192;-54
2022/04/14 08:20:33;;;;;;;18.42;12.85;;;15.80;99.90;;;;;;5094440;28;20193;-54
2022/04/14 08:23:00;;;;;;;18.73;14.18;;;16.00;99.90;;;;;;5094693;28;20173;-54
2022/04/14 08:25:44;;;;;;;18.90;15.23;;;16.00;99.90;;;;;;5094622;28;20608;-54
2022/04/14 08:28:09;;;;;;;18.80;12.68;;;16.30;99.90;;;;;;5094463;28;20161;-54
2022/04/14 08:30:36;;;;;;;15.75;11.65;;;16.30;99.90;;;;;;5094294;28;20172;-54
2022/04/14 08:33:06;;;;;;;16.13;12.50;;;16.40;99.90;;;;;;5093965;28;20173;-53
2022/04/14 08:35:33;;;;;;;15.73;13.05;;;16.60;99.90;;;;;;5093822;28;20220;-54
2022/04/14 08:38:02;;;;;;;20.95;13.98;;;16.70;99.90;;;;;;5094149;28;20173;-54
2022/04/14 08:40:32;;;;;;;18.08;14.02;;;16.70;99.90;;;;;;5094346;28;20165;-54
2022/04/14 08:43:03;;;;;;;17.38;13.98;;;16.80;99.90;;;;;;5094203;28;20181;-54
2022/04/14 08:45:43;;;;;;;18.00;13.13;;;17.00;99.90;;;;;;5075786;28;20669;-54
2022/04/14 08:48:08;;;;;;;21.27;13.10;;;16.80;99.90;;;;;;5093954;28;20266;-54
2022/04/14 08:50:34;;;;;;;16.50;12.85;;;16.90;99.90;;;;;;5093811;28;20248;-54
2022/04/14 09:06:01;;;;;;;19.98;16.02;;;16.90;99.90;;;;;;5109503;27;20534;-54
2022/04/14 09:08:27;;;;;;;19.35;16.05;;;17.70;99.90;;;;;;5109444;28;20637;-54
2022/04/14 09:10:52;;;;;;;16.67;13.70;;;17.70;99.90;;;;;;5109380;28;20164;-54
2022/04/14 09:13:20;;;;;;;18.20;14.63;;;17.80;99.90;;;;;;5109268;28;20167;-54
2022/04/14 09:15:47;;;;;;;18.67;15.40;;;17.90;99.90;;;;;;5109292;28;20169;-54
2022/04/14 09:18:13;;;;;;;19.67;15.55;;;18.00;99.90;;;;;;5109332;28;20570;-54
2022/04/14 09:20:41;;;;;;;19.92;16.95;;;18.10;99.90;;;;;;5109423;28;20169;-54
2022/04/14 09:23:23;;;;;;;17.60;14.20;;;17.90;99.90;;;;;;5109612;28;20512;-54
2022/04/14 09:25:51;;;;;;;24.52;18.00;;;18.00;99.90;;;;;;5109064;28;20218;-54
2022/04/14 09:28:19;;;;;;;22.65;16.33;;;18.20;99.90;;;;;;5108822;28;20210;-54
2022/04/14 09:31:09;;;;;;;22.23;16.48;;;18.20;99.90;;;;;;5109299;28;20501;-54
2022/04/14 09:33:44;;;;;;;20.67;15.90;;;18.10;99.90;;;;;;5108598;28;20199;-54
2022/04/14 09:36:20;;;;;;;20.67;14.98;;;18.20;99.90;;;;;;5109043;28;20221;-54
2022/04/14 09:38:57;;;;;;;23.98;16.13;;;18.40;99.90;;;;;;5108850;28;20196;-54
2022/04/14 09:41:33;;;;;;;24.25;18.02;;;18.80;99.90;;;;;;5108397;28;20239;-54
2022/04/14 09:44:01;;;;;;;18.90;16.15;;;18.60;99.90;;;;;;5109006;28;20568;-54
2022/04/14 09:46:27;;;;;;;22.25;17.25;;;18.80;99.90;;;;;;5108896;28;20175;-54
2022/04/14 09:49:02;;;;;;;22.10;16.98;;;18.70;99.90;;;;;;5108636;28;20584;-54
2022/04/14 09:51:29;;;;;;;20.20;17.63;;;19.00;99.90;;;;;;5108812;28;20533;-53
2022/04/14 09:54:11;;;;;;;22.48;18.65;;;19.10;99.90;;;;;;5108547;28;20249;-54
2022/04/14 09:56:51;;;;;;;23.80;19.30;;;19.20;99.90;;;;;;5108743;28;20172;-53
2022/04/14 09:59:19;;;;;;;24.77;18.63;;;19.50;99.90;;;;;;5108511;28;20239;-53
2022/04/14 10:01:45;;;;;;;20.35;18.15;;;19.60;99.90;;;;;;5108274;28;20176;-55
2022/04/14 10:04:33;;;;;;;23.85;19.10;;;19.70;99.90;;;;;;5108201;28;20274;-56
2022/04/14 10:07:03;;;;;;;22.70;18.27;;;19.70;99.90;;;;;;5094454;28;20232;-56
2022/04/14 10:09:31;;;;;;;22.77;19.75;;;19.90;99.90;;;;;;5094522;28;20522;-56
2022/04/14 10:11:57;;;;;;;23.20;20.55;;;20.00;99.90;;;;;;5094587;28;20168;-56
2022/04/14 10:14:24;;;;;;;22.65;19.77;;;20.30;99.90;;;;;;5094780;28;20212;-56
2022/04/14 10:16:50;;;;;;;25.85;20.70;;;20.50;99.90;;;;;;5094786;28;20204;-56
2022/04/14 10:19:17;;;;;;;24.83;21.52;;;20.60;99.90;;;;;;5094711;28;20173;-56
2022/04/14 10:21:44;;;;;;;24.38;21.00;;;20.50;99.90;;;;;;5094321;28;20701;-55
2022/04/14 10:24:11;;;;;;;26.42;21.67;;;20.60;99.90;;;;;;5094866;28;20180;-56
2022/04/14 10:26:38;;;;;;;23.80;21.08;;;20.60;99.90;;;;;;5094313;28;20593;-55
2022/04/14 10:29:06;;;;;;;24.15;21.05;;;20.80;99.90;;;;;;5094343;28;20162;-55
2022/04/14 10:31:38;;;;;;;22.70;19.13;;;20.70;99.90;;;;;;5094207;28;20161;-55
2022/04/14 10:34:04;;;;;;;23.50;19.95;;;20.50;99.90;;;;;;5093890;28;20205;-56
2022/04/14 10:36:41;;;;;;;21.70;18.70;;;20.60;99.90;;;;;;5093863;28;20637;-56
2022/04/14 10:39:10;;;;;;;24.58;17.02;;;20.60;99.90;;;;;;5093465;28;20177;-56
2022/04/14 10:41:41;;;;;;;20.40;16.80;;;20.60;99.90;;;;;;5094061;28;20168;-56
2022/04/14 10:44:07;;;;;;;22.38;19.02;;;20.80;99.90;;;;;;5094040;28;20173;-55
2022/04/14 10:46:37;;;;;;;22.65;17.58;;;20.80;99.90;;;;;;5093955;28;20188;-55
2022/04/14 10:49:24;;;;;;;26.55;19.35;;;20.80;99.90;;;;;;5093959;28;20174;-55
2022/04/14 10:51:52;;;;;;;26.55;22.25;;;21.00;99.90;;;;;;5094164;28;20177;-55
2022/04/14 10:54:19;;;;;;;26.65;23.25;;;20.80;99.90;;;;;;5093791;28;20204;-55
2022/04/14 10:56:50;;;;;;;26.90;21.05;;;21.20;99.90;;;;;;5093837;28;20245;-55
2022/04/14 10:59:18;;;;;;;24.48;20.73;;;21.00;99.90;;;;;;5093830;28;20174;-55
2022/04/14 11:01:52;;;;;;;26.08;21.73;;;21.10;99.90;;;;;;5093808;28;20177;-54
2022/04/14 11:04:46;;;;;;;28.17;21.40;;;20.90;99.90;;;;;;5093112;28;20584;-55
2022/04/14 11:07:21;;;;;;;21.80;18.48;;;21.10;99.90;;;;;;5093914;28;20166;-55
2022/04/14 11:09:52;;;;;;;18.83;16.85;;;21.20;99.90;;;;;;5093916;28;20178;-55
2022/04/14 11:12:41;;;;;;;25.08;20.20;;;21.20;99.90;;;;;;5093804;28;20227;-55
2022/04/14 11:15:10;;;;;;;22.42;20.00;;;21.10;99.90;;;;;;5093031;28;20211;-55
2022/04/14 11:17:48;;;;;;;23.17;19.95;;;21.20;99.90;;;;;;5092609;28;20234;-54
2022/04/14 11:20:44;;;;;;;19.40;15.93;;;21.50;99.90;;;;;;5093215;28;20637;-55
2022/04/14 11:23:24;;;;;;;18.80;16.15;;;21.70;99.90;;;;;;5093757;28;20173;-55
2022/04/14 11:26:09;;;;;;;16.42;13.63;;;21.70;99.90;;;;;;5092002;28;20165;-54
2022/04/14 11:28:38;;;;;;;17.63;15.23;;;21.00;99.90;;;;;;5093161;28;20201;-54
2022/04/14 11:31:13;;;;;;;18.30;15.77;;;20.60;99.90;;;;;;5093034;28;20166;-55
2022/04/14 11:33:43;;;;;;;19.17;17.05;;;20.10;99.90;;;;;;5093111;28;20230;-55
2022/04/14 11:36:14;;;;;;;17.65;14.05;;;19.50;99.90;;;;;;5093563;28;20183;-54
2022/04/14 11:38:58;;;;;;;16.45;13.32;;;20.50;99.90;;;;;;5093247;28;20181;-55
2022/04/14 11:41:42;;;;;;;16.20;12.38;;;20.30;99.90;;;;;;5092983;28;20192;-54
2022/04/14 11:44:10;;;;;;;21.25;14.55;;;21.00;99.90;;;;;;5092763;28;20657;-56
2022/04/14 11:46:38;;;;;;;12.35;10.50;;;21.30;99.90;;;;;;5092736;28;20201;-55
2022/04/14 11:49:05;;;;;;;16.50;12.38;;;21.00;99.90;;;;;;5092766;28;20197;-54
2022/04/14 11:51:31;;;;;;;14.48;12.98;;;20.90;99.90;;;;;;5092636;28;20541;-56
2022/04/14 11:53:57;;;;;;;16.83;14.23;;;20.80;99.90;;;;;;5092424;28;20280;-55
2022/04/14 11:56:25;;;;;;;20.05;15.20;;;20.60;99.90;;;;;;5092637;28;20196;-54
2022/04/14 11:58:51;;;;;;;14.57;11.80;;;20.40;99.90;;;;;;5092868;28;20596;-55
2022/04/14 12:01:17;;;;;;;14.20;11.40;;;20.70;99.90;;;;;;5092519;28;20165;-54
2022/04/14 12:03:43;;;;;;;11.77;9.82;;;20.90;99.90;;;;;;5092272;28;20522;-55
2022/04/14 12:06:16;;;;;;;15.23;13.13;;;21.20;99.90;;;;;;5092863;28;20640;-55
2022/04/14 12:08:51;;;;;;;15.23;13.45;;;21.00;99.90;;;;;;5092675;28;20173;-56
2022/04/14 12:11:17;;;;;;;16.02;13.80;;;20.90;99.90;;;;;;5092428;28;20532;-56
2022/04/14 12:13:43;;;;;;;19.27;15.90;;;20.80;99.90;;;;;;5091715;28;20205;-54
2022/04/14 12:16:11;;;;;;;20.00;17.48;;;20.70;99.90;;;;;;5092619;28;20180;-55
2022/04/14 12:18:38;;;;;;;19.10;16.48;;;20.80;99.90;;;;;;5092270;28;20165;-55
2022/04/14 12:21:04;;;;;;;12.80;11.48;;;21.00;99.90;;;;;;5092187;28;20226;-55
2022/04/14 12:23:30;;;;;;;16.98;14.50;;;21.30;99.90;;;;;;5092138;28;20172;-55
2022/04/14 12:25:57;;;;;;;16.60;14.68;;;21.50;99.90;;;;;;5092201;28;20161;-56
2022/04/14 12:28:23;;;;;;;17.17;15.32;;;21.50;99.90;;;;;;5091908;28;20218;-55
2022/04/14 12:30:49;;;;;;;14.40;12.63;;;21.50;99.90;;;;;;5091902;28;20159;-55
2022/04/14 12:33:15;;;;;;;13.27;11.85;;;21.10;99.90;;;;;;5091710;28;20240;-55
2022/04/14 12:35:44;;;;;;;15.23;13.05;;;20.90;99.90;;;;;;5092001;28;20201;-55
2022/04/14 12:38:18;;;;;;;13.60;11.60;;;21.20;99.90;;;;;;5092271;28;20275;-55
2022/04/14 12:40:59;;;;;;;12.38;10.30;;;21.40;99.90;;;;;;5091519;28;20628;-55
2022/04/14 12:43:28;;;;;;;12.32;9.38;;;21.20;99.90;;;;;;5092133;28;20208;-56